sensor_id;sensor_type;location;lat;lon;timestamp;P1;durP1;ratioP1;P2;durP2;ratioP2
23388;SDS011;11867;51.198;11.966;2023-05-28T04:30:54;8.70;;;5.60;;
23388;SDS011;11867;51.198;11.966;2023-05-28T04:35:25;6.95;;;4.32;;
23388;SDS011;11867;51.198;11.966;2023-05-28T04:39:50;5.80;;;3.97;;
23388;SDS011;11867;51.198;11.966;2023-05-28T04:45:19;6.88;;;4.97;;
23388;SDS011;11867;51.198;11.966;2023-05-28T04:47:15;7.93;;;4.47;;
23388;SDS011;11867;51.198;11.966;2023-05-28T04:49:20;7.95;;;4.47;;
23388;SDS011;11867;51.198;11.966;2023-05-28T04:51:41;5.32;;;4.00;;
23388;SDS011;11867;51.198;11.966;2023-05-28T04:54:18;9.52;;;4.53;;
23388;SDS011;11867;51.198;11.966;2023-05-28T04:58:59;7.10;;;5.22;;
23388;SDS011;11867;51.198;11.966;2023-05-28T06:07:10;9.07;;;5.13;;
23388;SDS011;11867;51.198;11.966;2023-05-28T06:08:34;9.73;;;5.05;;
23388;SDS011;11867;51.198;11.966;2023-05-28T06:09:57;8.70;;;5.68;;
23388;SDS011;11867;51.198;11.966;2023-05-28T06:11:19;11.73;;;5.53;;
23388;SDS011;11867;51.198;11.966;2023-05-28T06:12:55;8.80;;;5.15;;
23388;SDS011;11867;51.198;11.966;2023-05-28T06:14:18;8.40;;;5.18;;
23388;SDS011;11867;51.198;11.966;2023-05-28T06:15:44;7.55;;;5.50;;
23388;SDS011;11867;51.198;11.966;2023-05-28T06:17:10;9.07;;;5.90;;
23388;SDS011;11867;51.198;11.966;2023-05-28T06:18:34;8.52;;;5.60;;
23388;SDS011;11867;51.198;11.966;2023-05-28T06:20:02;9.85;;;5.18;;
23388;SDS011;11867;51.198;11.966;2023-05-28T06:22:56;10.82;;;5.60;;
23388;SDS011;11867;51.198;11.966;2023-05-28T06:24:20;8.30;;;5.32;;
23388;SDS011;11867;51.198;11.966;2023-05-28T06:25:46;5.28;;;4.78;;
23388;SDS011;11867;51.198;11.966;2023-05-28T06:27:09;7.65;;;4.55;;
23388;SDS011;11867;51.198;11.966;2023-05-28T06:28:34;9.57;;;5.28;;
23388;SDS011;11867;51.198;11.966;2023-05-28T06:29:57;11.38;;;5.50;;
23388;SDS011;11867;51.198;11.966;2023-05-28T06:31:22;10.10;;;5.90;;
23388;SDS011;11867;51.198;11.966;2023-05-28T06:32:46;10.85;;;5.60;;
23388;SDS011;11867;51.198;11.966;2023-05-28T06:34:09;7.88;;;5.35;;
23388;SDS011;11867;51.198;11.966;2023-05-28T06:35:31;11.18;;;6.75;;
23388;SDS011;11867;51.198;11.966;2023-05-28T06:36:56;12.43;;;6.80;;
23388;SDS011;11867;51.198;11.966;2023-05-28T06:38:23;11.15;;;7.15;;
23388;SDS011;11867;51.198;11.966;2023-05-28T06:39:46;10.70;;;6.38;;
23388;SDS011;11867;51.198;11.966;2023-05-28T06:41:08;10.43;;;7.15;;
23388;SDS011;11867;51.198;11.966;2023-05-28T06:42:32;9.75;;;6.55;;
23388;SDS011;11867;51.198;11.966;2023-05-28T06:43:55;10.50;;;6.28;;
23388;SDS011;11867;51.198;11.966;2023-05-28T06:45:19;11.27;;;6.63;;
23388;SDS011;11867;51.198;11.966;2023-05-28T06:46:43;9.43;;;6.38;;
23388;SDS011;11867;51.198;11.966;2023-05-28T06:48:06;8.48;;;6.25;;
23388;SDS011;11867;51.198;11.966;2023-05-28T06:49:29;10.48;;;7.10;;
23388;SDS011;11867;51.198;11.966;2023-05-28T06:50:52;10.98;;;6.10;;
23388;SDS011;11867;51.198;11.966;2023-05-28T06:52:15;10.02;;;6.00;;
23388;SDS011;11867;51.198;11.966;2023-05-28T06:53:42;11.43;;;6.32;;
23388;SDS011;11867;51.198;11.966;2023-05-28T06:55:22;11.00;;;6.50;;
23388;SDS011;11867;51.198;11.966;2023-05-28T06:56:47;9.95;;;6.55;;
23388;SDS011;11867;51.198;11.966;2023-05-28T06:58:09;12.93;;;7.32;;
23388;SDS011;11867;51.198;11.966;2023-05-28T06:59:32;11.00;;;7.10;;
23388;SDS011;11867;51.198;11.966;2023-05-28T07:00:56;13.70;;;6.90;;
23388;SDS011;11867;51.198;11.966;2023-05-28T07:02:18;9.27;;;6.80;;
23388;SDS011;11867;51.198;11.966;2023-05-28T07:03:43;9.85;;;6.95;;
23388;SDS011;11867;51.198;11.966;2023-05-28T07:05:06;11.95;;;7.60;;
23388;SDS011;11867;51.198;11.966;2023-05-28T07:06:31;9.75;;;6.68;;
23388;SDS011;11867;51.198;11.966;2023-05-28T07:07:55;9.80;;;6.90;;
23388;SDS011;11867;51.198;11.966;2023-05-28T07:09:20;11.25;;;6.57;;
23388;SDS011;11867;51.198;11.966;2023-05-28T07:10:43;9.70;;;6.50;;
23388;SDS011;11867;51.198;11.966;2023-05-28T07:12:06;10.02;;;6.90;;
23388;SDS011;11867;51.198;11.966;2023-05-28T07:13:30;11.82;;;6.47;;
23388;SDS011;11867;51.198;11.966;2023-05-28T07:14:55;9.85;;;6.32;;
23388;SDS011;11867;51.198;11.966;2023-05-28T07:16:18;14.10;;;7.22;;
23388;SDS011;11867;51.198;11.966;2023-05-28T07:17:41;10.73;;;6.68;;
23388;SDS011;11867;51.198;11.966;2023-05-28T07:19:05;10.45;;;7.00;;
23388;SDS011;11867;51.198;11.966;2023-05-28T07:20:28;8.10;;;6.38;;
23388;SDS011;11867;51.198;11.966;2023-05-28T07:21:51;8.20;;;5.53;;
23388;SDS011;11867;51.198;11.966;2023-05-28T07:23:14;7.82;;;5.97;;
23388;SDS011;11867;51.198;11.966;2023-05-28T07:24:39;7.97;;;5.70;;
23388;SDS011;11867;51.198;11.966;2023-05-28T07:26:04;10.60;;;6.63;;
23388;SDS011;11867;51.198;11.966;2023-05-28T07:27:26;9.43;;;6.38;;
23388;SDS011;11867;51.198;11.966;2023-05-28T07:28:50;9.93;;;6.72;;
23388;SDS011;11867;51.198;11.966;2023-05-28T07:30:12;11.32;;;6.35;;
23388;SDS011;11867;51.198;11.966;2023-05-28T07:31:38;10.13;;;5.88;;
23388;SDS011;11867;51.198;11.966;2023-05-28T07:33:02;10.60;;;6.47;;
23388;SDS011;11867;51.198;11.966;2023-05-28T07:34:25;10.43;;;6.53;;
23388;SDS011;11867;51.198;11.966;2023-05-28T07:35:49;9.73;;;6.03;;
23388;SDS011;11867;51.198;11.966;2023-05-28T07:37:12;8.10;;;5.75;;
23388;SDS011;11867;51.198;11.966;2023-05-28T07:38:41;8.27;;;5.78;;
23388;SDS011;11867;51.198;11.966;2023-05-28T07:40:07;9.73;;;6.15;;
23388;SDS011;11867;51.198;11.966;2023-05-28T07:41:34;9.35;;;6.20;;
23388;SDS011;11867;51.198;11.966;2023-05-28T07:43:01;9.15;;;5.45;;
23388;SDS011;11867;51.198;11.966;2023-05-28T07:44:26;8.82;;;5.75;;
23388;SDS011;11867;51.198;11.966;2023-05-28T07:45:59;12.13;;;5.75;;
23388;SDS011;11867;51.198;11.966;2023-05-28T07:47:22;7.18;;;5.38;;
23388;SDS011;11867;51.198;11.966;2023-05-28T07:48:45;11.35;;;5.72;;
23388;SDS011;11867;51.198;11.966;2023-05-28T07:50:08;10.70;;;5.03;;
23388;SDS011;11867;51.198;11.966;2023-05-28T07:51:32;7.07;;;5.35;;
23388;SDS011;11867;51.198;11.966;2023-05-28T07:52:55;10.88;;;5.63;;
23388;SDS011;11867;51.198;11.966;2023-05-28T07:54:20;7.20;;;5.45;;
23388;SDS011;11867;51.198;11.966;2023-05-28T07:55:45;7.10;;;4.95;;
23388;SDS011;11867;51.198;11.966;2023-05-28T07:57:08;8.13;;;5.72;;
23388;SDS011;11867;51.198;11.966;2023-05-28T07:58:31;6.13;;;4.75;;
23388;SDS011;11867;51.198;11.966;2023-05-28T07:59:55;10.35;;;5.25;;
23388;SDS011;11867;51.198;11.966;2023-05-28T08:01:19;8.00;;;5.10;;
23388;SDS011;11867;51.198;11.966;2023-05-28T08:03:00;8.60;;;5.05;;
23388;SDS011;11867;51.198;11.966;2023-05-28T08:04:50;9.38;;;4.80;;
23388;SDS011;11867;51.198;11.966;2023-05-28T08:06:19;9.52;;;5.10;;
23388;SDS011;11867;51.198;11.966;2023-05-28T08:07:41;9.50;;;4.50;;
23388;SDS011;11867;51.198;11.966;2023-05-28T08:09:06;6.82;;;4.20;;
23388;SDS011;11867;51.198;11.966;2023-05-28T08:10:58;10.10;;;4.50;;
23388;SDS011;11867;51.198;11.966;2023-05-28T08:12:22;8.30;;;4.82;;
23388;SDS011;11867;51.198;11.966;2023-05-28T08:13:50;8.63;;;4.63;;
23388;SDS011;11867;51.198;11.966;2023-05-28T08:15:16;11.82;;;4.72;;
23388;SDS011;11867;51.198;11.966;2023-05-28T08:16:39;8.45;;;4.75;;
23388;SDS011;11867;51.198;11.966;2023-05-28T08:18:07;9.55;;;4.97;;
23388;SDS011;11867;51.198;11.966;2023-05-28T08:19:42;9.50;;;5.20;;
23388;SDS011;11867;51.198;11.966;2023-05-28T08:21:43;9.02;;;4.82;;
23388;SDS011;11867;51.198;11.966;2023-05-28T08:23:07;8.55;;;4.63;;
23388;SDS011;11867;51.198;11.966;2023-05-28T08:24:30;8.40;;;4.95;;
23388;SDS011;11867;51.198;11.966;2023-05-28T08:25:52;7.75;;;4.43;;
23388;SDS011;11867;51.198;11.966;2023-05-28T08:27:18;9.88;;;4.32;;
23388;SDS011;11867;51.198;11.966;2023-05-28T08:28:42;9.13;;;4.20;;
23388;SDS011;11867;51.198;11.966;2023-05-28T08:30:07;6.85;;;4.07;;
23388;SDS011;11867;51.198;11.966;2023-05-28T08:31:31;9.40;;;3.67;;
23388;SDS011;11867;51.198;11.966;2023-05-28T08:32:53;9.93;;;4.13;;
23388;SDS011;11867;51.198;11.966;2023-05-28T08:34:17;7.55;;;4.00;;
23388;SDS011;11867;51.198;11.966;2023-05-28T08:35:40;8.13;;;4.10;;
23388;SDS011;11867;51.198;11.966;2023-05-28T08:37:09;7.18;;;3.90;;
23388;SDS011;11867;51.198;11.966;2023-05-28T08:38:39;7.15;;;4.18;;
23388;SDS011;11867;51.198;11.966;2023-05-28T08:40:04;5.95;;;3.53;;
23388;SDS011;11867;51.198;11.966;2023-05-28T08:41:35;8.18;;;3.58;;
23388;SDS011;11867;51.198;11.966;2023-05-28T08:44:00;7.32;;;3.40;;
23388;SDS011;11867;51.198;11.966;2023-05-28T08:45:25;7.03;;;3.50;;
23388;SDS011;11867;51.198;11.966;2023-05-28T08:46:51;7.35;;;3.08;;
23388;SDS011;11867;51.198;11.966;2023-05-28T08:48:15;6.88;;;3.80;;
23388;SDS011;11867;51.198;11.966;2023-05-28T08:49:42;9.32;;;3.95;;
23388;SDS011;11867;51.198;11.966;2023-05-28T08:51:15;9.88;;;3.50;;
23388;SDS011;11867;51.198;11.966;2023-05-28T08:52:43;7.00;;;3.95;;
23388;SDS011;11867;51.198;11.966;2023-05-28T08:54:27;6.18;;;3.33;;
23388;SDS011;11867;51.198;11.966;2023-05-28T08:55:51;10.05;;;3.67;;
23388;SDS011;11867;51.198;11.966;2023-05-28T08:57:14;6.63;;;4.00;;
23388;SDS011;11867;51.198;11.966;2023-05-28T08:58:38;9.15;;;4.15;;
23388;SDS011;11867;51.198;11.966;2023-05-28T09:00:04;5.25;;;3.70;;
23388;SDS011;11867;51.198;11.966;2023-05-28T09:01:33;8.57;;;3.83;;
23388;SDS011;11867;51.198;11.966;2023-05-28T09:03:00;6.10;;;3.35;;
23388;SDS011;11867;51.198;11.966;2023-05-28T09:04:29;9.00;;;3.40;;
23388;SDS011;11867;51.198;11.966;2023-05-28T09:05:52;6.47;;;3.20;;
23388;SDS011;11867;51.198;11.966;2023-05-28T09:07:15;6.95;;;3.95;;
23388;SDS011;11867;51.198;11.966;2023-05-28T09:08:38;7.32;;;3.53;;
23388;SDS011;11867;51.198;11.966;2023-05-28T09:10:01;8.13;;;4.05;;
23388;SDS011;11867;51.198;11.966;2023-05-28T09:11:25;7.57;;;4.00;;
23388;SDS011;11867;51.198;11.966;2023-05-28T09:12:56;6.55;;;3.50;;
23388;SDS011;11867;51.198;11.966;2023-05-28T09:14:23;9.32;;;3.78;;
23388;SDS011;11867;51.198;11.966;2023-05-28T09:15:50;6.55;;;3.92;;
23388;SDS011;11867;51.198;11.966;2023-05-28T09:17:13;6.63;;;3.28;;
23388;SDS011;11867;51.198;11.966;2023-05-28T09:18:36;6.50;;;2.80;;
23388;SDS011;11867;51.198;11.966;2023-05-28T09:19:59;8.43;;;3.20;;
23388;SDS011;11867;51.198;11.966;2023-05-28T09:21:23;8.95;;;4.03;;
23388;SDS011;11867;51.198;11.966;2023-05-28T09:22:51;4.20;;;3.72;;
23388;SDS011;11867;51.198;11.966;2023-05-28T09:24:20;7.28;;;3.35;;
23388;SDS011;11867;51.198;11.966;2023-05-28T09:25:44;6.35;;;3.08;;
23388;SDS011;11867;51.198;11.966;2023-05-28T09:27:07;4.50;;;2.72;;
23388;SDS011;11867;51.198;11.966;2023-05-28T09:28:30;5.63;;;3.30;;
23388;SDS011;11867;51.198;11.966;2023-05-28T09:29:54;7.20;;;3.13;;
23388;SDS011;11867;51.198;11.966;2023-05-28T09:31:18;9.15;;;3.33;;
23388;SDS011;11867;51.198;11.966;2023-05-28T09:32:42;6.85;;;3.20;;
23388;SDS011;11867;51.198;11.966;2023-05-28T09:34:05;6.28;;;3.65;;
23388;SDS011;11867;51.198;11.966;2023-05-28T09:35:44;3.70;;;2.78;;
23388;SDS011;11867;51.198;11.966;2023-05-28T09:40:44;8.55;;;3.05;;
23388;SDS011;11867;51.198;11.966;2023-05-28T09:42:18;4.75;;;3.03;;
23388;SDS011;11867;51.198;11.966;2023-05-28T09:44:12;4.63;;;2.70;;
23388;SDS011;11867;51.198;11.966;2023-05-28T10:18:50;6.03;;;2.88;;
23388;SDS011;11867;51.198;11.966;2023-05-28T10:20:14;4.32;;;2.92;;
23388;SDS011;11867;51.198;11.966;2023-05-28T10:21:41;6.00;;;3.00;;
23388;SDS011;11867;51.198;11.966;2023-05-28T10:23:07;4.75;;;3.00;;
23388;SDS011;11867;51.198;11.966;2023-05-28T10:24:38;4.60;;;2.63;;
23388;SDS011;11867;51.198;11.966;2023-05-28T10:26:20;5.68;;;2.58;;
23388;SDS011;11867;51.198;11.966;2023-05-28T10:27:59;4.95;;;2.90;;
23388;SDS011;11867;51.198;11.966;2023-05-28T10:29:27;5.20;;;2.97;;
23388;SDS011;11867;51.198;11.966;2023-05-28T10:31:05;5.68;;;3.00;;
23388;SDS011;11867;51.198;11.966;2023-05-28T10:32:37;6.55;;;3.53;;
23388;SDS011;11867;51.198;11.966;2023-05-28T10:34:23;7.35;;;3.20;;
23388;SDS011;11867;51.198;11.966;2023-05-28T10:36:02;8.13;;;3.67;;
23388;SDS011;11867;51.198;11.966;2023-05-28T10:37:32;5.53;;;3.08;;
23388;SDS011;11867;51.198;11.966;2023-05-28T10:39:14;4.97;;;2.53;;
23388;SDS011;11867;51.198;11.966;2023-05-28T10:40:51;8.90;;;3.25;;
23388;SDS011;11867;51.198;11.966;2023-05-28T10:42:23;8.25;;;3.03;;
23388;SDS011;11867;51.198;11.966;2023-05-28T10:43:50;3.63;;;2.55;;
23388;SDS011;11867;51.198;11.966;2023-05-28T10:45:32;6.05;;;2.95;;
23388;SDS011;11867;51.198;11.966;2023-05-28T10:47:00;5.95;;;2.97;;
23388;SDS011;11867;51.198;11.966;2023-05-28T10:48:32;4.38;;;2.75;;
23388;SDS011;11867;51.198;11.966;2023-05-28T10:50:16;6.28;;;3.05;;
23388;SDS011;11867;51.198;11.966;2023-05-28T10:51:57;10.73;;;3.67;;
23388;SDS011;11867;51.198;11.966;2023-05-28T10:53:25;4.47;;;3.15;;
23388;SDS011;11867;51.198;11.966;2023-05-28T10:54:53;5.30;;;3.10;;
23388;SDS011;11867;51.198;11.966;2023-05-28T10:56:16;4.15;;;3.30;;
23388;SDS011;11867;51.198;11.966;2023-05-28T10:57:43;8.18;;;3.38;;
23388;SDS011;11867;51.198;11.966;2023-05-28T10:59:15;5.43;;;3.00;;
23388;SDS011;11867;51.198;11.966;2023-05-28T11:00:41;5.10;;;3.15;;
23388;SDS011;11867;51.198;11.966;2023-05-28T11:02:11;6.00;;;3.25;;
23388;SDS011;11867;51.198;11.966;2023-05-28T11:03:55;5.28;;;3.15;;
23388;SDS011;11867;51.198;11.966;2023-05-28T11:05:23;5.18;;;3.35;;
23388;SDS011;11867;51.198;11.966;2023-05-28T11:06:51;6.30;;;2.95;;
23388;SDS011;11867;51.198;11.966;2023-05-28T11:08:30;5.32;;;3.13;;
23388;SDS011;11867;51.198;11.966;2023-05-28T11:09:59;4.95;;;2.83;;
23388;SDS011;11867;51.198;11.966;2023-05-28T11:11:24;7.78;;;2.95;;
23388;SDS011;11867;51.198;11.966;2023-05-28T11:12:49;10.77;;;3.65;;
23388;SDS011;11867;51.198;11.966;2023-05-28T11:14:14;4.53;;;3.05;;
23388;SDS011;11867;51.198;11.966;2023-05-28T11:15:49;6.18;;;3.22;;
23388;SDS011;11867;51.198;11.966;2023-05-28T11:17:15;4.35;;;3.25;;
23388;SDS011;11867;51.198;11.966;2023-05-28T11:18:59;5.05;;;3.22;;
23388;SDS011;11867;51.198;11.966;2023-05-28T11:20:34;5.63;;;3.08;;
23388;SDS011;11867;51.198;11.966;2023-05-28T11:22:04;7.55;;;3.35;;
23388;SDS011;11867;51.198;11.966;2023-05-28T11:23:31;4.97;;;3.15;;
23388;SDS011;11867;51.198;11.966;2023-05-28T11:24:56;5.15;;;2.63;;
23388;SDS011;11867;51.198;11.966;2023-05-28T11:26:22;5.85;;;3.13;;
23388;SDS011;11867;51.198;11.966;2023-05-28T11:27:52;4.13;;;2.90;;
23388;SDS011;11867;51.198;11.966;2023-05-28T11:29:20;3.33;;;2.65;;
23388;SDS011;11867;51.198;11.966;2023-05-28T11:30:47;4.60;;;2.97;;
23388;SDS011;11867;51.198;11.966;2023-05-28T11:32:14;4.57;;;2.80;;
23388;SDS011;11867;51.198;11.966;2023-05-28T11:33:48;6.15;;;3.03;;
23388;SDS011;11867;51.198;11.966;2023-05-28T11:35:29;5.03;;;2.83;;
23388;SDS011;11867;51.198;11.966;2023-05-28T11:36:54;5.50;;;3.08;;
23388;SDS011;11867;51.198;11.966;2023-05-28T11:38:18;4.80;;;2.95;;
23388;SDS011;11867;51.198;11.966;2023-05-28T11:39:50;6.97;;;3.55;;
23388;SDS011;11867;51.198;11.966;2023-05-28T11:42:39;4.57;;;2.70;;
23388;SDS011;11867;51.198;11.966;2023-05-28T11:44:19;5.85;;;2.83;;
23388;SDS011;11867;51.198;11.966;2023-05-28T11:45:44;5.65;;;3.10;;
23388;SDS011;11867;51.198;11.966;2023-05-28T11:47:08;9.63;;;3.22;;
23388;SDS011;11867;51.198;11.966;2023-05-28T11:48:36;6.32;;;3.17;;
23388;SDS011;11867;51.198;11.966;2023-05-28T11:50:06;7.05;;;3.33;;
23388;SDS011;11867;51.198;11.966;2023-05-28T11:51:33;4.45;;;3.10;;
23388;SDS011;11867;51.198;11.966;2023-05-28T11:52:59;7.00;;;3.30;;
23388;SDS011;11867;51.198;11.966;2023-05-28T11:54:27;5.35;;;2.80;;
23388;SDS011;11867;51.198;11.966;2023-05-28T11:55:51;6.18;;;2.83;;
23388;SDS011;11867;51.198;11.966;2023-05-28T11:57:19;6.53;;;3.20;;
23388;SDS011;11867;51.198;11.966;2023-05-28T11:58:48;7.43;;;3.05;;
23388;SDS011;11867;51.198;11.966;2023-05-28T12:00:13;5.47;;;3.08;;
23388;SDS011;11867;51.198;11.966;2023-05-28T12:02:06;5.47;;;3.50;;
23388;SDS011;11867;51.198;11.966;2023-05-28T12:03:34;6.15;;;2.80;;
23388;SDS011;11867;51.198;11.966;2023-05-28T12:05:01;4.55;;;3.17;;
23388;SDS011;11867;51.198;11.966;2023-05-28T12:06:31;4.40;;;2.78;;
23388;SDS011;11867;51.198;11.966;2023-05-28T12:08:05;5.53;;;2.80;;
23388;SDS011;11867;51.198;11.966;2023-05-28T12:09:32;4.20;;;2.70;;
23388;SDS011;11867;51.198;11.966;2023-05-28T12:10:59;9.82;;;3.33;;
23388;SDS011;11867;51.198;11.966;2023-05-28T12:12:28;5.88;;;2.97;;
23388;SDS011;11867;51.198;11.966;2023-05-28T12:13:54;8.35;;;3.58;;
23388;SDS011;11867;51.198;11.966;2023-05-28T12:15:28;5.93;;;3.10;;
23388;SDS011;11867;51.198;11.966;2023-05-28T12:17:03;3.45;;;2.65;;
23388;SDS011;11867;51.198;11.966;2023-05-28T12:18:39;4.83;;;2.57;;
23388;SDS011;11867;51.198;11.966;2023-05-28T12:21:59;6.25;;;2.75;;
23388;SDS011;11867;51.198;11.966;2023-05-28T12:23:46;5.35;;;3.15;;
23388;SDS011;11867;51.198;11.966;2023-05-28T12:25:16;5.72;;;3.00;;
23388;SDS011;11867;51.198;11.966;2023-05-28T12:26:42;4.95;;;2.67;;
23388;SDS011;11867;51.198;11.966;2023-05-28T12:28:10;5.63;;;3.35;;
23388;SDS011;11867;51.198;11.966;2023-05-28T12:29:37;4.10;;;2.50;;
23388;SDS011;11867;51.198;11.966;2023-05-28T12:31:05;6.72;;;3.05;;
23388;SDS011;11867;51.198;11.966;2023-05-28T12:32:32;3.40;;;2.60;;
23388;SDS011;11867;51.198;11.966;2023-05-28T12:34:07;5.47;;;3.13;;
23388;SDS011;11867;51.198;11.966;2023-05-28T12:35:30;6.82;;;2.80;;
23388;SDS011;11867;51.198;11.966;2023-05-28T12:37:18;5.70;;;2.70;;
23388;SDS011;11867;51.198;11.966;2023-05-28T12:39:03;7.28;;;3.05;;
23388;SDS011;11867;51.198;11.966;2023-05-28T12:40:39;5.38;;;3.00;;
23388;SDS011;11867;51.198;11.966;2023-05-28T12:42:07;6.93;;;3.47;;
23388;SDS011;11867;51.198;11.966;2023-05-28T12:43:34;5.10;;;2.90;;
23388;SDS011;11867;51.198;11.966;2023-05-28T12:45:09;5.80;;;3.10;;
23388;SDS011;11867;51.198;11.966;2023-05-28T12:46:44;4.63;;;2.85;;
23388;SDS011;11867;51.198;11.966;2023-05-28T12:48:12;4.68;;;2.85;;
23388;SDS011;11867;51.198;11.966;2023-05-28T12:49:41;4.18;;;2.78;;
23388;SDS011;11867;51.198;11.966;2023-05-28T12:51:26;5.82;;;2.53;;
23388;SDS011;11867;51.198;11.966;2023-05-28T12:53:01;6.25;;;2.58;;
23388;SDS011;11867;51.198;11.966;2023-05-28T12:54:27;5.63;;;2.88;;
23388;SDS011;11867;51.198;11.966;2023-05-28T12:55:51;3.70;;;2.75;;
23388;SDS011;11867;51.198;11.966;2023-05-28T12:57:19;4.97;;;3.20;;
23388;SDS011;11867;51.198;11.966;2023-05-28T12:59:08;6.65;;;2.83;;
23388;SDS011;11867;51.198;11.966;2023-05-28T13:00:42;3.70;;;2.30;;
23388;SDS011;11867;51.198;11.966;2023-05-28T13:02:11;5.57;;;2.63;;
23388;SDS011;11867;51.198;11.966;2023-05-28T13:03:35;4.47;;;2.75;;
23388;SDS011;11867;51.198;11.966;2023-05-28T13:04:59;5.03;;;2.55;;
23388;SDS011;11867;51.198;11.966;2023-05-28T13:06:37;5.88;;;2.55;;
23388;SDS011;11867;51.198;11.966;2023-05-28T13:08:10;6.30;;;2.70;;
23388;SDS011;11867;51.198;11.966;2023-05-28T13:11:20;5.50;;;2.92;;
23388;SDS011;11867;51.198;11.966;2023-05-28T13:12:50;3.25;;;2.38;;
23388;SDS011;11867;51.198;11.966;2023-05-28T13:14:14;4.32;;;2.63;;
23388;SDS011;11867;51.198;11.966;2023-05-28T13:15:41;4.53;;;2.60;;
23388;SDS011;11867;51.198;11.966;2023-05-28T13:17:20;5.05;;;3.05;;
23388;SDS011;11867;51.198;11.966;2023-05-28T13:18:44;4.18;;;2.38;;
23388;SDS011;11867;51.198;11.966;2023-05-28T13:20:18;4.18;;;2.40;;
23388;SDS011;11867;51.198;11.966;2023-05-28T13:21:41;3.03;;;2.30;;
23388;SDS011;11867;51.198;11.966;2023-05-28T13:23:09;6.05;;;2.70;;
23388;SDS011;11867;51.198;11.966;2023-05-28T13:24:38;7.95;;;2.65;;
23388;SDS011;11867;51.198;11.966;2023-05-28T13:26:29;7.35;;;2.78;;
23388;SDS011;11867;51.198;11.966;2023-05-28T13:28:01;6.18;;;2.60;;
23388;SDS011;11867;51.198;11.966;2023-05-28T13:29:32;6.22;;;2.45;;
23388;SDS011;11867;51.198;11.966;2023-05-28T13:31:05;5.93;;;2.65;;
23388;SDS011;11867;51.198;11.966;2023-05-28T13:32:32;6.10;;;2.65;;
23388;SDS011;11867;51.198;11.966;2023-05-28T13:34:04;3.58;;;2.40;;
23388;SDS011;11867;51.198;11.966;2023-05-28T13:35:30;7.07;;;2.80;;
23388;SDS011;11867;51.198;11.966;2023-05-28T13:37:17;3.90;;;2.50;;
23388;SDS011;11867;51.198;11.966;2023-05-28T13:38:56;3.42;;;2.22;;
23388;SDS011;11867;51.198;11.966;2023-05-28T13:40:28;2.50;;;2.10;;
23388;SDS011;11867;51.198;11.966;2023-05-28T13:42:08;4.47;;;2.22;;
23388;SDS011;11867;51.198;11.966;2023-05-28T13:43:51;4.43;;;2.45;;
23388;SDS011;11867;51.198;11.966;2023-05-28T13:45:23;3.70;;;2.50;;
23388;SDS011;11867;51.198;11.966;2023-05-28T13:46:49;6.93;;;2.47;;
23388;SDS011;11867;51.198;11.966;2023-05-28T13:48:18;5.68;;;2.13;;
23388;SDS011;11867;51.198;11.966;2023-05-28T13:49:49;5.38;;;2.70;;
23388;SDS011;11867;51.198;11.966;2023-05-28T13:51:22;5.85;;;2.35;;
23388;SDS011;11867;51.198;11.966;2023-05-28T13:52:48;5.45;;;2.55;;
23388;SDS011;11867;51.198;11.966;2023-05-28T13:54:20;4.45;;;2.47;;
23388;SDS011;11867;51.198;11.966;2023-05-28T13:55:48;5.82;;;2.53;;
23388;SDS011;11867;51.198;11.966;2023-05-28T13:57:44;4.60;;;2.47;;
23388;SDS011;11867;51.198;11.966;2023-05-28T13:59:16;3.72;;;2.28;;
23388;SDS011;11867;51.198;11.966;2023-05-28T14:00:39;3.75;;;2.60;;
23388;SDS011;11867;51.198;11.966;2023-05-28T14:02:04;5.78;;;2.65;;
23388;SDS011;11867;51.198;11.966;2023-05-28T14:03:30;4.47;;;2.67;;
23388;SDS011;11867;51.198;11.966;2023-05-28T14:05:05;6.82;;;3.50;;
23388;SDS011;11867;51.198;11.966;2023-05-28T14:06:32;6.50;;;3.30;;
23388;SDS011;11867;51.198;11.966;2023-05-28T14:07:58;5.03;;;2.72;;
23388;SDS011;11867;51.198;11.966;2023-05-28T14:09:29;4.70;;;2.30;;
23388;SDS011;11867;51.198;11.966;2023-05-28T14:11:01;5.40;;;2.72;;
23388;SDS011;11867;51.198;11.966;2023-05-28T14:12:28;5.47;;;2.70;;
23388;SDS011;11867;51.198;11.966;2023-05-28T14:13:52;4.65;;;2.38;;
23388;SDS011;11867;51.198;11.966;2023-05-28T14:15:19;5.03;;;2.58;;
23388;SDS011;11867;51.198;11.966;2023-05-28T14:16:44;4.22;;;2.63;;
23388;SDS011;11867;51.198;11.966;2023-05-28T14:18:11;5.43;;;2.50;;
23388;SDS011;11867;51.198;11.966;2023-05-28T14:19:50;6.55;;;3.28;;
23388;SDS011;11867;51.198;11.966;2023-05-28T14:21:23;4.50;;;2.28;;
23388;SDS011;11867;51.198;11.966;2023-05-28T14:22:57;4.82;;;2.22;;
23388;SDS011;11867;51.198;11.966;2023-05-28T14:24:31;4.20;;;2.38;;
23388;SDS011;11867;51.198;11.966;2023-05-28T14:25:58;3.70;;;2.40;;
23388;SDS011;11867;51.198;11.966;2023-05-28T14:27:36;3.05;;;2.03;;
23388;SDS011;11867;51.198;11.966;2023-05-28T14:29:04;5.57;;;2.40;;
23388;SDS011;11867;51.198;11.966;2023-05-28T14:30:33;3.25;;;2.25;;
23388;SDS011;11867;51.198;11.966;2023-05-28T14:32:02;7.70;;;2.45;;
23388;SDS011;11867;51.198;11.966;2023-05-28T14:33:32;4.20;;;2.40;;
23388;SDS011;11867;51.198;11.966;2023-05-28T14:35:09;3.60;;;2.20;;
23388;SDS011;11867;51.198;11.966;2023-05-28T14:36:35;7.38;;;3.60;;
23388;SDS011;11867;51.198;11.966;2023-05-28T14:38:01;4.65;;;2.53;;
23388;SDS011;11867;51.198;11.966;2023-05-28T14:39:40;6.95;;;2.50;;
23388;SDS011;11867;51.198;11.966;2023-05-28T14:41:07;3.75;;;2.10;;
23388;SDS011;11867;51.198;11.966;2023-05-28T14:42:39;5.72;;;2.60;;
23388;SDS011;11867;51.198;11.966;2023-05-28T14:44:13;2.60;;;2.03;;
23388;SDS011;11867;51.198;11.966;2023-05-28T14:45:37;7.07;;;5.75;;
23388;SDS011;11867;51.198;11.966;2023-05-28T14:47:06;11.23;;;8.80;;
23388;SDS011;11867;51.198;11.966;2023-05-28T14:48:32;4.32;;;3.60;;
23388;SDS011;11867;51.198;11.966;2023-05-28T14:50:03;5.95;;;2.90;;
23388;SDS011;11867;51.198;11.966;2023-05-28T14:51:44;4.72;;;2.80;;
23388;SDS011;11867;51.198;11.966;2023-05-28T14:53:14;4.63;;;2.42;;
23388;SDS011;11867;51.198;11.966;2023-05-28T14:54:48;5.40;;;2.25;;
23388;SDS011;11867;51.198;11.966;2023-05-28T14:56:15;6.18;;;2.90;;
23388;SDS011;11867;51.198;11.966;2023-05-28T14:57:42;2.75;;;2.40;;
23388;SDS011;11867;51.198;11.966;2023-05-28T14:59:12;2.30;;;2.00;;
23388;SDS011;11867;51.198;11.966;2023-05-28T15:00:45;7.75;;;2.53;;
23388;SDS011;11867;51.198;11.966;2023-05-28T15:02:09;5.78;;;2.67;;
23388;SDS011;11867;51.198;11.966;2023-05-28T15:03:35;5.90;;;2.40;;
23388;SDS011;11867;51.198;11.966;2023-05-28T15:05:05;5.00;;;2.38;;
23388;SDS011;11867;51.198;11.966;2023-05-28T15:06:36;3.13;;;1.98;;
23388;SDS011;11867;51.198;11.966;2023-05-28T15:08:13;2.65;;;2.20;;
23388;SDS011;11867;51.198;11.966;2023-05-28T15:09:39;7.60;;;2.75;;
23388;SDS011;11867;51.198;11.966;2023-05-28T15:11:06;4.20;;;2.30;;
23388;SDS011;11867;51.198;11.966;2023-05-28T15:12:41;4.60;;;2.65;;
23388;SDS011;11867;51.198;11.966;2023-05-28T15:14:30;5.03;;;2.30;;
23388;SDS011;11867;51.198;11.966;2023-05-28T15:15:57;3.38;;;2.33;;
23388;SDS011;11867;51.198;11.966;2023-05-28T15:17:28;3.55;;;2.30;;
23388;SDS011;11867;51.198;11.966;2023-05-28T15:19:06;3.05;;;2.33;;
23388;SDS011;11867;51.198;11.966;2023-05-28T15:20:29;3.33;;;2.20;;
23388;SDS011;11867;51.198;11.966;2023-05-28T15:22:03;6.22;;;2.25;;
23388;SDS011;11867;51.198;11.966;2023-05-28T15:23:27;11.70;;;7.32;;
23388;SDS011;11867;51.198;11.966;2023-05-28T15:24:51;5.18;;;4.30;;